createdAt,value
2018-10-11T00:00:37.047Z,9.70
2018-10-11T00:03:05.464Z,9.60
2018-10-11T00:05:33.529Z,9.70
2018-10-11T00:08:01.709Z,9.60
2018-10-11T00:10:29.952Z,9.50
2018-10-11T00:12:58.056Z,9.50
2018-10-11T00:15:26.124Z,9.50
2018-10-11T00:17:54.223Z,9.60
2018-10-11T00:20:22.277Z,9.60
2018-10-11T00:22:50.570Z,9.50
2018-10-11T00:25:18.657Z,9.50
2018-10-11T00:27:46.793Z,9.50
2018-10-11T00:30:15.199Z,9.40
2018-10-11T00:32:43.235Z,9.40
2018-10-11T00:35:11.344Z,9.10
2018-10-11T00:37:39.399Z,8.90
2018-10-11T00:40:08.709Z,8.80
2018-10-11T00:42:36.856Z,8.60
2018-10-11T00:45:05.045Z,8.60
2018-10-11T00:47:33.336Z,8.40
2018-10-11T00:50:01.489Z,8.30
2018-10-11T00:52:29.587Z,8.10
2018-10-11T00:54:57.753Z,7.90
2018-10-11T00:57:25.897Z,7.80
2018-10-11T00:59:53.994Z,8.00
2018-10-11T01:02:22.225Z,8.20
2018-10-11T01:04:50.354Z,8.30
2018-10-11T01:07:18.535Z,8.30
2018-10-11T01:09:46.761Z,8.40
2018-10-11T01:12:14.769Z,8.50
2018-10-11T01:14:43.063Z,8.50
2018-10-11T01:17:11.222Z,8.60
2018-10-11T01:19:39.333Z,8.50
2018-10-11T01:22:07.368Z,8.40
2018-10-11T01:24:35.565Z,8.10
2018-10-11T01:27:03.711Z,7.90
2018-10-11T01:29:31.942Z,8.00
2018-10-11T01:31:59.990Z,8.00
2018-10-11T01:34:28.228Z,7.80
2018-10-11T01:36:56.496Z,7.40
2018-10-11T01:39:24.720Z,7.30
2018-10-11T01:41:52.904Z,7.40
2018-10-11T01:44:21.053Z,7.70
2018-10-11T01:46:49.267Z,7.80
2018-10-11T01:49:17.392Z,7.80
2018-10-11T01:51:45.498Z,7.90
2018-10-11T01:54:13.676Z,8.10
2018-10-11T01:56:41.734Z,8.10
2018-10-11T01:59:09.915Z,8.00
2018-10-11T02:01:37.984Z,7.90
2018-10-11T02:04:06.075Z,7.80
2018-10-11T02:06:34.111Z,7.80
2018-10-11T02:09:02.421Z,7.80
2018-10-11T02:11:30.578Z,7.70
2018-10-11T02:13:58.667Z,7.70
2018-10-11T02:16:26.837Z,7.80
2018-10-11T02:18:55.113Z,7.90
2018-10-11T02:21:24.990Z,8.00
2018-10-11T02:23:54.966Z,8.00
2018-10-11T02:26:23.883Z,8.00
2018-10-11T02:28:51.933Z,8.00
2018-10-11T02:31:19.999Z,7.90
2018-10-11T02:33:48.050Z,8.00
2018-10-11T02:36:16.364Z,8.00
2018-10-11T02:38:44.514Z,7.80
2018-10-11T02:41:13.741Z,7.60
2018-10-11T02:43:42.013Z,7.40
2018-10-11T02:46:10.186Z,7.20
2018-10-11T02:48:39.072Z,7.10
2018-10-11T02:51:07.145Z,7.20
2018-10-11T02:53:35.205Z,7.20
2018-10-11T02:56:03.881Z,7.30
2018-10-11T02:58:43.016Z,7.40
2018-10-11T03:01:11.400Z,7.40
2018-10-11T03:03:39.793Z,7.40
2018-10-11T03:06:08.069Z,7.50
2018-10-11T03:08:36.438Z,7.60
2018-10-11T03:11:04.752Z,7.60
2018-10-11T03:13:32.769Z,7.70
2018-10-11T03:16:00.963Z,7.80
2018-10-11T03:18:29.621Z,8.00
2018-10-11T03:20:58.570Z,8.00
2018-10-11T03:23:26.827Z,8.00
2018-10-11T03:25:55.020Z,7.90
2018-10-11T03:28:23.049Z,7.90
2018-10-11T03:30:51.301Z,7.90
2018-10-11T03:33:19.408Z,7.90
2018-10-11T03:35:47.501Z,8.00
2018-10-11T03:38:15.577Z,7.90
2018-10-11T03:40:43.752Z,7.90
2018-10-11T03:43:12.030Z,7.90
2018-10-11T03:45:40.078Z,7.90
2018-10-11T03:48:08.396Z,7.70
2018-10-11T03:50:36.534Z,7.60
2018-10-11T03:53:04.838Z,7.60
2018-10-11T03:55:32.933Z,7.40
2018-10-11T03:58:01.095Z,7.40
2018-10-11T04:00:29.377Z,7.30
2018-10-11T04:02:57.493Z,7.30
2018-10-11T04:05:25.637Z,7.20
2018-10-11T04:07:53.862Z,7.10
2018-10-11T04:10:21.957Z,7.10
2018-10-11T04:12:50.003Z,7.10
2018-10-11T04:15:18.440Z,7.10
2018-10-11T04:18:03.945Z,7.10
2018-10-11T04:20:32.208Z,7.10
2018-10-11T04:23:00.532Z,7.10
2018-10-11T04:25:28.728Z,7.00
2018-10-11T04:27:56.767Z,7.00
2018-10-11T04:30:25.434Z,7.10
2018-10-11T04:32:53.441Z,7.20
2018-10-11T04:35:21.847Z,7.20
2018-10-11T04:37:49.914Z,7.10
2018-10-11T04:40:17.981Z,7.00
2018-10-11T04:42:46.220Z,7.00
2018-10-11T04:45:14.214Z,7.00
2018-10-11T04:47:42.400Z,7.00
2018-10-11T04:50:10.557Z,7.00
2018-10-11T04:52:38.769Z,6.90
2018-10-11T04:55:06.927Z,6.80
2018-10-11T04:57:35.081Z,6.90
2018-10-11T05:00:03.396Z,6.80
2018-10-11T05:02:31.561Z,6.80
2018-10-11T05:04:59.642Z,6.90
2018-10-11T05:07:27.823Z,6.90
2018-10-11T05:09:55.898Z,6.80
2018-10-11T05:12:24.274Z,6.70
2018-10-11T05:14:52.590Z,6.70
2018-10-11T05:17:20.843Z,6.70
2018-10-11T05:19:48.968Z,6.70
2018-10-11T05:22:17.228Z,6.80
2018-10-11T05:24:45.456Z,6.70
2018-10-11T05:27:13.597Z,6.60
2018-10-11T05:29:41.846Z,6.60
2018-10-11T05:32:10.255Z,6.60
2018-10-11T05:34:38.356Z,6.60
2018-10-11T05:37:07.024Z,6.60
2018-10-11T05:39:35.316Z,6.60
2018-10-11T05:42:03.588Z,6.50
2018-10-11T05:44:31.795Z,6.60
2018-10-11T05:47:00.060Z,6.60
2018-10-11T05:49:28.098Z,6.80
2018-10-11T05:51:56.436Z,6.90
2018-10-11T05:54:24.695Z,6.90
2018-10-11T05:56:52.946Z,7.00
2018-10-11T05:59:21.323Z,7.20
2018-10-11T06:01:49.703Z,7.40
2018-10-11T06:04:18.060Z,7.70
2018-10-11T06:06:47.240Z,7.80
2018-10-11T06:09:15.539Z,7.90
2018-10-11T06:11:44.717Z,8.00
2018-10-11T06:14:13.552Z,8.20
2018-10-11T06:16:41.950Z,8.30
2018-10-11T06:19:11.380Z,8.40
2018-10-11T06:21:39.588Z,8.40
2018-10-11T06:24:08.029Z,8.50
2018-10-11T06:26:36.381Z,8.60
2018-10-11T06:29:04.892Z,8.70
2018-10-11T06:31:33.035Z,8.80
2018-10-11T06:34:01.333Z,8.90
2018-10-11T06:36:29.767Z,9.00
2018-10-11T06:38:58.832Z,9.10
2018-10-11T06:41:27.094Z,9.20
2018-10-11T06:43:56.070Z,9.40
2018-10-11T06:46:24.243Z,9.50
2018-10-11T06:48:52.541Z,9.60
2018-10-11T06:51:20.796Z,9.70
2018-10-11T06:53:50.139Z,9.80
2018-10-11T06:56:18.180Z,9.90
2018-10-11T06:58:46.257Z,10.00
2018-10-11T07:01:14.569Z,10.10
2018-10-11T07:03:42.693Z,10.20
2018-10-11T07:06:10.786Z,10.40
2018-10-11T07:08:38.842Z,10.50
2018-10-11T07:11:06.919Z,10.60
2018-10-11T07:13:35.000Z,10.70
2018-10-11T07:16:03.045Z,10.80
2018-10-11T07:18:31.263Z,10.90
2018-10-11T07:20:59.308Z,11.10
2018-10-11T07:23:27.504Z,11.20
2018-10-11T07:25:55.972Z,11.40
2018-10-11T07:28:24.140Z,11.60
2018-10-11T07:30:52.241Z,11.70
2018-10-11T07:33:20.393Z,11.80
2018-10-11T07:35:48.693Z,11.90
2018-10-11T07:38:16.728Z,12.00
2018-10-11T07:40:44.860Z,12.20
2018-10-11T07:43:12.924Z,12.30
2018-10-11T07:45:40.951Z,12.30
2018-10-11T07:48:09.384Z,12.50
2018-10-11T07:50:37.514Z,12.70
2018-10-11T07:53:05.605Z,12.80
2018-10-11T07:55:33.665Z,13.00
2018-10-11T07:58:02.056Z,13.10
2018-10-11T08:00:30.122Z,13.20
2018-10-11T08:02:58.331Z,13.30
2018-10-11T08:05:26.396Z,13.40
2018-10-11T08:07:54.529Z,13.50
2018-10-11T08:10:22.681Z,13.80
2018-10-11T08:12:50.700Z,13.80
2018-10-11T08:15:19.070Z,13.90
2018-10-11T08:17:47.420Z,14.00
2018-10-11T08:20:15.288Z,14.10
2018-10-11T08:22:43.310Z,14.20
2018-10-11T08:25:11.694Z,14.20
2018-10-11T08:27:39.689Z,14.40
2018-10-11T08:30:08.369Z,14.50
2018-10-11T08:32:36.583Z,14.70
2018-10-11T08:35:04.797Z,14.80
2018-10-11T08:37:33.040Z,14.80
2018-10-11T08:40:01.147Z,15.00
2018-10-11T08:42:29.522Z,15.00
2018-10-11T08:44:57.674Z,15.10
2018-10-11T08:47:26.009Z,15.30
2018-10-11T08:49:54.026Z,15.50
2018-10-11T08:52:22.145Z,15.50
2018-10-11T08:54:51.178Z,15.40
2018-10-11T08:57:19.955Z,15.40
2018-10-11T08:59:48.245Z,15.60
2018-10-11T09:02:16.350Z,15.80
2018-10-11T09:04:45.050Z,15.90
2018-10-11T09:07:13.355Z,16.00
2018-10-11T09:09:41.625Z,16.10
2018-10-11T09:12:09.669Z,16.20
2018-10-11T09:14:37.851Z,16.30
2018-10-11T09:17:06.296Z,16.50
2018-10-11T09:19:34.285Z,16.60
2018-10-11T09:22:02.585Z,16.70
2018-10-11T09:24:31.073Z,16.80
2018-10-11T09:26:59.431Z,16.80
2018-10-11T09:29:27.632Z,16.90
2018-10-11T09:31:55.782Z,17.00
2018-10-11T09:34:23.874Z,17.10
2018-10-11T09:36:51.949Z,17.10
2018-10-11T09:39:19.990Z,17.20
2018-10-11T09:41:48.317Z,17.30
2018-10-11T09:44:16.472Z,17.40
2018-10-11T09:46:44.808Z,17.50
2018-10-11T09:49:12.901Z,17.60
2018-10-11T09:51:41.117Z,17.70
2018-10-11T09:54:09.145Z,17.80
2018-10-11T09:57:22.102Z,18.00
2018-10-11T09:59:50.245Z,18.10
2018-10-11T10:02:18.497Z,18.20
2018-10-11T10:04:47.825Z,18.30
2018-10-11T10:07:15.920Z,18.30
2018-10-11T10:09:44.854Z,18.40
2018-10-11T10:12:13.200Z,18.50
2018-10-11T10:14:41.993Z,18.60
2018-10-11T10:17:10.440Z,18.70
2018-10-11T10:19:38.744Z,18.70
2018-10-11T10:22:07.130Z,18.70
2018-10-11T10:24:35.284Z,18.80
2018-10-11T10:27:03.817Z,18.90
2018-10-11T10:29:31.873Z,18.90
2018-10-11T10:32:00.424Z,19.00
2018-10-11T10:34:28.633Z,19.00
2018-10-11T10:36:56.804Z,19.10
2018-10-11T10:39:25.052Z,19.10
2018-10-11T10:41:53.264Z,19.10
2018-10-11T10:44:21.293Z,19.10
2018-10-11T10:46:49.612Z,19.20
2018-10-11T10:49:17.668Z,19.20
2018-10-11T10:51:45.850Z,19.30
2018-10-11T10:54:19.434Z,19.30
2018-10-11T10:56:47.501Z,19.40
2018-10-11T10:59:15.699Z,19.50
2018-10-11T11:01:43.744Z,19.50
2018-10-11T11:04:11.855Z,19.60
2018-10-11T11:06:40.365Z,19.70
2018-10-11T11:09:09.949Z,19.70
2018-10-11T11:11:38.744Z,19.80
2018-10-11T11:14:07.384Z,19.80
2018-10-11T11:16:35.608Z,19.80
2018-10-11T11:19:04.061Z,19.80
2018-10-11T11:21:32.117Z,19.80
2018-10-11T11:24:00.229Z,19.90
2018-10-11T11:26:28.280Z,20.00
2018-10-11T11:28:56.886Z,20.00
2018-10-11T11:31:25.120Z,20.00
2018-10-11T11:33:53.256Z,20.00
2018-10-11T11:36:21.510Z,20.10
2018-10-11T11:38:49.651Z,20.20
2018-10-11T11:41:18.496Z,20.30
2018-10-11T11:43:46.708Z,20.40
2018-10-11T11:46:14.948Z,20.40
2018-10-11T11:48:43.119Z,20.40
2018-10-11T11:51:12.160Z,20.60
2018-10-11T11:53:41.475Z,20.70
2018-10-11T11:56:09.982Z,20.80
2018-10-11T11:58:38.799Z,20.80
2018-10-11T12:01:07.688Z,20.80
2018-10-11T12:03:35.932Z,20.90
2018-10-11T12:06:04.263Z,20.90
2018-10-11T12:08:33.289Z,21.00
2018-10-11T12:11:02.354Z,21.00
2018-10-11T12:13:30.648Z,21.00
2018-10-11T12:15:58.868Z,21.10
2018-10-11T12:18:26.913Z,21.20
2018-10-11T12:20:55.300Z,21.30
2018-10-11T12:23:23.389Z,21.30
2018-10-11T12:25:51.441Z,21.30
2018-10-11T12:28:19.695Z,21.40
2018-10-11T12:30:47.752Z,21.40
2018-10-11T12:33:15.893Z,21.40
2018-10-11T12:35:43.938Z,21.50
2018-10-11T12:38:12.029Z,21.60
2018-10-11T12:40:40.312Z,21.60
2018-10-11T12:43:08.493Z,21.60
2018-10-11T12:45:37.254Z,21.60
2018-10-11T12:48:04.744Z,21.60
2018-10-11T12:50:32.832Z,21.70
2018-10-11T12:53:01.002Z,21.70
2018-10-11T12:55:29.066Z,21.70
2018-10-11T12:57:57.402Z,21.70
2018-10-11T13:00:25.612Z,21.80
2018-10-11T13:02:53.811Z,21.80
2018-10-11T13:05:21.968Z,21.90
2018-10-11T13:07:50.008Z,21.90
2018-10-11T13:10:18.217Z,21.90
2018-10-11T13:12:46.278Z,22.00
2018-10-11T13:15:14.470Z,22.00
2018-10-11T13:17:43.647Z,22.00
2018-10-11T13:20:10.816Z,22.00
2018-10-11T13:22:39.008Z,22.00
2018-10-11T13:25:07.155Z,21.90
2018-10-11T13:27:35.373Z,22.00
2018-10-11T13:30:03.546Z,22.10
2018-10-11T13:32:31.666Z,22.10
2018-10-11T13:34:59.839Z,22.10
2018-10-11T13:37:27.941Z,22.10
2018-10-11T13:39:57.691Z,22.10
2018-10-11T13:42:24.188Z,22.20
2018-10-11T13:44:52.240Z,22.20
2018-10-11T13:47:20.391Z,22.20
2018-10-11T13:49:48.573Z,22.20
2018-10-11T13:52:20.556Z,22.20
2018-10-11T13:54:44.730Z,22.20
2018-10-11T13:57:12.940Z,22.20
2018-10-11T13:59:41.976Z,22.20
2018-10-11T14:02:10.040Z,22.20
2018-10-11T14:04:38.113Z,22.20
2018-10-11T14:07:06.140Z,22.20
2018-10-11T14:09:34.400Z,22.20
2018-10-11T14:12:02.536Z,22.20
2018-10-11T14:14:30.676Z,22.20
2018-10-11T14:16:58.845Z,22.30
2018-10-11T14:19:27.086Z,22.20
2018-10-11T14:21:55.168Z,22.20
2018-10-11T14:24:23.362Z,22.10
2018-10-11T14:26:51.422Z,22.10
2018-10-11T14:29:19.579Z,22.20
2018-10-11T14:31:48.014Z,22.10
2018-10-11T14:34:16.161Z,22.10
2018-10-11T14:36:44.307Z,22.10
2018-10-11T14:39:12.490Z,22.10
2018-10-11T14:41:40.596Z,22.10
2018-10-11T14:44:08.645Z,22.00
2018-10-11T14:46:36.748Z,22.00
2018-10-11T14:49:05.087Z,22.00
2018-10-11T14:51:33.413Z,21.90
2018-10-11T14:54:01.561Z,21.80
2018-10-11T14:56:29.861Z,21.80
2018-10-11T14:58:58.097Z,21.90
2018-10-11T15:01:27.045Z,21.90
2018-10-11T15:03:55.089Z,21.90
2018-10-11T15:06:23.179Z,21.80
2018-10-11T15:08:51.276Z,21.70
2018-10-11T15:11:19.328Z,21.80
2018-10-11T15:13:47.403Z,21.70
2018-10-11T15:16:15.676Z,21.60
2018-10-11T15:18:43.759Z,21.60
2018-10-11T15:21:11.800Z,21.50
2018-10-11T15:23:39.934Z,21.40
2018-10-11T15:26:08.084Z,21.20
2018-10-11T15:28:36.265Z,20.80
2018-10-11T15:31:04.403Z,20.60
2018-10-11T15:33:32.512Z,20.40
2018-10-11T15:35:59.875Z,20.40
2018-10-11T15:38:27.199Z,20.10
2018-10-11T15:40:54.538Z,19.90
2018-10-11T15:43:21.920Z,19.80
2018-10-11T15:45:49.346Z,19.70
2018-10-11T15:48:16.848Z,19.60
2018-10-11T15:50:44.265Z,19.50
2018-10-11T15:53:11.755Z,19.60
2018-10-11T15:55:39.100Z,19.50
2018-10-11T15:58:06.643Z,19.30
2018-10-11T16:00:34.129Z,19.10
2018-10-11T16:03:01.461Z,19.00
2018-10-11T16:05:28.917Z,18.80
2018-10-11T16:07:56.171Z,18.60
2018-10-11T16:10:23.545Z,18.50
2018-10-11T16:12:50.887Z,18.30
2018-10-11T16:15:18.262Z,18.10
2018-10-11T16:17:45.636Z,18.00
2018-10-11T16:20:13.180Z,17.90
2018-10-11T16:22:40.516Z,17.70
2018-10-11T16:25:07.893Z,17.70
2018-10-11T16:27:35.276Z,17.50
2018-10-11T16:30:02.682Z,17.40
2018-10-11T16:32:30.060Z,17.30
2018-10-11T16:34:57.524Z,17.20
2018-10-11T16:37:25.091Z,17.10
2018-10-11T16:39:52.732Z,17.00
2018-10-11T16:42:20.384Z,16.90
2018-10-11T16:44:47.754Z,16.50
2018-10-11T16:47:15.127Z,16.10
2018-10-11T16:49:42.509Z,15.70
2018-10-11T16:52:09.836Z,15.40
2018-10-11T16:54:41.595Z,15.20
2018-10-11T16:57:09.460Z,15.00
2018-10-11T16:59:36.820Z,14.80
2018-10-11T17:02:04.283Z,14.70
2018-10-11T17:04:31.652Z,14.70
2018-10-11T17:06:58.959Z,14.50
2018-10-11T17:09:26.381Z,14.50
2018-10-11T17:11:53.684Z,14.50
2018-10-11T17:14:21.064Z,14.50
2018-10-11T17:16:48.434Z,14.50
2018-10-11T17:19:16.274Z,14.40
2018-10-11T17:21:43.801Z,14.20
2018-10-11T17:24:11.320Z,14.00
2018-10-11T17:26:40.174Z,13.70
2018-10-11T17:29:10.705Z,13.50
2018-10-11T17:31:38.164Z,13.40
2018-10-11T17:34:06.164Z,13.30
2018-10-11T17:36:33.585Z,13.20
2018-10-11T17:39:01.032Z,13.10
2018-10-11T17:41:28.824Z,13.00
2018-10-11T17:43:56.663Z,12.90
2018-10-11T17:46:24.488Z,13.00
2018-10-11T17:48:52.356Z,13.10
2018-10-11T17:51:20.113Z,13.10
2018-10-11T17:53:48.049Z,12.90
2018-10-11T17:56:15.845Z,12.70
2018-10-11T17:58:43.626Z,12.50
2018-10-11T18:01:11.188Z,12.50
2018-10-11T18:03:38.815Z,12.40
2018-10-11T18:06:06.519Z,12.30
2018-10-11T18:08:34.061Z,12.20
2018-10-11T18:11:01.547Z,12.10
2018-10-11T18:13:29.092Z,12.00
2018-10-11T18:15:56.467Z,12.00
2018-10-11T18:18:24.025Z,12.00
2018-10-11T18:20:51.457Z,12.10
2018-10-11T18:23:22.530Z,12.20
2018-10-11T18:25:49.951Z,12.20
2018-10-11T18:28:17.311Z,12.20
2018-10-11T18:30:44.775Z,12.20
2018-10-11T18:33:12.104Z,12.30
2018-10-11T18:35:39.501Z,12.30
2018-10-11T18:38:13.544Z,12.40
2018-10-11T18:40:48.404Z,12.40
2018-10-11T18:43:15.880Z,12.30
2018-10-11T18:45:46.850Z,12.20
2018-10-11T18:48:16.334Z,12.10
2018-10-11T18:50:46.280Z,12.00
2018-10-11T18:53:20.569Z,11.90
2018-10-11T18:55:53.319Z,11.80
2018-10-11T18:58:25.565Z,11.80
2018-10-11T19:00:55.676Z,11.70
2018-10-11T19:03:29.971Z,11.60
2018-10-11T19:06:00.175Z,11.60
2018-10-11T19:08:30.836Z,11.60
2018-10-11T19:11:01.143Z,11.50
2018-10-11T19:13:31.203Z,11.40
2018-10-11T19:16:01.386Z,11.40
2018-10-11T19:18:31.202Z,11.30
2018-10-11T19:21:00.966Z,11.20
2018-10-11T19:23:31.344Z,11.30
2018-10-11T19:26:01.670Z,11.50
2018-10-11T19:28:31.528Z,11.50
2018-10-11T19:31:01.328Z,11.50
2018-10-11T19:33:31.499Z,11.50
2018-10-11T19:36:01.698Z,11.50
2018-10-11T19:38:31.733Z,11.50
2018-10-11T19:41:01.595Z,11.60
2018-10-11T19:43:31.383Z,11.60
2018-10-11T19:46:01.401Z,11.60
2018-10-11T19:48:31.275Z,11.70
2018-10-11T19:51:01.372Z,11.70
2018-10-11T19:53:31.164Z,11.80
2018-10-11T19:56:01.265Z,11.90
2018-10-11T19:58:31.374Z,12.00
2018-10-11T20:01:01.485Z,12.10
2018-10-11T20:03:31.285Z,12.10
2018-10-11T20:06:01.392Z,12.10
2018-10-11T20:08:31.689Z,12.10
2018-10-11T20:11:01.585Z,12.20
2018-10-11T20:13:31.403Z,12.20
2018-10-11T20:16:00.152Z,12.30
2018-10-11T20:18:30.229Z,12.30
2018-10-11T20:20:59.906Z,12.30
2018-10-11T20:23:29.866Z,12.30
2018-10-11T20:25:59.787Z,12.20
2018-10-11T20:28:29.760Z,12.20
2018-10-11T20:30:59.840Z,12.20
2018-10-11T20:33:29.651Z,12.30
2018-10-11T20:36:00.104Z,12.30
2018-10-11T20:38:29.831Z,12.40
2018-10-11T20:41:00.072Z,12.40
2018-10-11T20:43:29.944Z,12.50
2018-10-11T20:46:00.239Z,12.40
2018-10-11T20:48:30.177Z,12.40
2018-10-11T20:51:00.213Z,12.40
2018-10-11T20:53:30.270Z,12.50
2018-10-11T20:56:00.409Z,12.40
2018-10-11T20:58:30.425Z,12.40
2018-10-11T21:01:00.111Z,12.40
2018-10-11T21:03:29.847Z,12.50
2018-10-11T21:05:59.428Z,12.60
2018-10-11T21:08:28.894Z,12.60
2018-10-11T21:10:59.076Z,12.60
2018-10-11T21:13:28.773Z,12.70
2018-10-11T21:15:58.565Z,12.70
2018-10-11T21:18:28.312Z,12.70
2018-10-11T21:20:57.860Z,12.70
2018-10-11T21:23:27.780Z,12.70
2018-10-11T21:25:57.707Z,12.80
2018-10-11T21:28:27.414Z,12.80
2018-10-11T21:30:57.515Z,12.70
2018-10-11T21:33:27.785Z,12.60
2018-10-11T21:35:57.714Z,12.50
2018-10-11T21:38:27.457Z,12.50
2018-10-11T21:40:56.765Z,12.50
2018-10-11T21:43:26.493Z,12.50
2018-10-11T21:45:56.182Z,12.60
2018-10-11T21:48:25.895Z,12.60
2018-10-11T21:50:55.451Z,12.60
2018-10-11T21:53:25.330Z,12.60
2018-10-11T21:55:56.073Z,12.60
2018-10-11T21:58:25.960Z,12.60
2018-10-11T22:01:00.926Z,12.60
2018-10-11T22:03:30.900Z,12.70
2018-10-11T22:06:00.796Z,12.70
2018-10-11T22:08:30.656Z,12.70
2018-10-11T22:11:00.588Z,12.70
2018-10-11T22:13:30.652Z,12.70
2018-10-11T22:16:01.307Z,12.70
2018-10-11T22:18:32.094Z,12.70
2018-10-11T22:21:02.135Z,12.70
2018-10-11T22:23:32.062Z,12.60
2018-10-11T22:26:02.214Z,12.50
2018-10-11T22:28:32.243Z,12.50
2018-10-11T22:31:02.357Z,12.60
2018-10-11T22:33:32.608Z,12.50
2018-10-11T22:36:03.142Z,12.50
2018-10-11T22:38:32.823Z,12.60
2018-10-11T22:41:02.689Z,12.50
2018-10-11T22:43:32.464Z,12.60
2018-10-11T22:46:02.268Z,12.60
2018-10-11T22:48:32.447Z,12.60
2018-10-11T22:51:02.180Z,12.60
2018-10-11T22:53:32.344Z,12.60
2018-10-11T22:56:02.134Z,12.60
2018-10-11T22:58:32.179Z,12.70
2018-10-11T23:01:02.199Z,12.70
2018-10-11T23:03:31.953Z,12.70
2018-10-11T23:06:02.049Z,12.70
2018-10-11T23:08:32.022Z,12.70
2018-10-11T23:11:02.240Z,12.60
2018-10-11T23:13:32.433Z,12.60
2018-10-11T23:16:02.313Z,12.60
2018-10-11T23:18:32.356Z,12.60
2018-10-11T23:21:02.415Z,12.50
2018-10-11T23:23:32.543Z,12.50
2018-10-11T23:26:02.537Z,12.50
2018-10-11T23:28:32.596Z,12.50
2018-10-11T23:31:02.843Z,12.50
2018-10-11T23:33:32.948Z,12.50
2018-10-11T23:36:03.449Z,12.50
2018-10-11T23:38:33.648Z,12.50
2018-10-11T23:41:03.735Z,12.50
2018-10-11T23:43:33.541Z,12.50
2018-10-11T23:46:03.497Z,12.40
2018-10-11T23:48:33.271Z,12.40
2018-10-11T23:51:03.035Z,12.30
2018-10-11T23:53:32.750Z,12.20
2018-10-11T23:56:02.736Z,12.10
2018-10-11T23:58:32.872Z,12.00
